Time;durP1;ratioP1;P1;durP2;ratioP2;P2;SDS_P1;SDS_P2;PMS_P1;PMS_P2;Temp;Humidity;BMP_temperature;BMP_pressure;BME280_temperature;BME280_humidity;BME280_pressure;Samples;Min_cycle;Max_cycle;Signal;HPM_P1;HPM_P2
2023/08/28 00:01:14;;;;;;;4.38;3.00;;;;;;;17.39;80.69;99622.47;30597048;28;115405;-77
2023/08/28 00:16:15;;;;;;;4.57;2.70;;;;;;;17.27;80.85;99592.00;30613078;28;97387;-77
2023/08/28 00:31:15;;;;;;;3.38;2.38;;;;;;;17.22;80.87;99601.59;30612005;28;96757;-77
2023/08/28 00:46:17;;;;;;;5.57;3.53;;;;;;;17.13;80.70;99602.94;30610185;28;98437;-72
2023/08/28 01:01:17;;;;;;;4.28;2.58;;;;;;;17.08;80.85;99597.41;30609948;28;97664;-73
2023/08/28 01:16:22;;;;;;;3.13;2.50;;;;;;;17.05;80.96;99630.16;30607260;28;113932;-76
2023/08/28 01:31:23;;;;;;;4.73;2.60;;;;;;;16.83;80.64;99645.94;30606069;28;97000;-76
2023/08/28 01:46:24;;;;;;;4.82;3.08;;;;;;;16.73;80.66;99665.25;30604990;28;96664;-72
2023/08/28 02:01:25;;;;;;;3.43;2.37;;;;;;;16.64;80.89;99655.88;30603696;28;97045;-71
2023/08/28 02:16:27;;;;;;;4.67;2.73;;;;;;;16.68;80.76;99670.50;30602229;28;96818;-76
2023/08/28 02:31:27;;;;;;;3.97;2.33;;;;;;;16.60;80.68;99646.59;30600958;28;97525;-76
2023/08/28 02:46:27;;;;;;;4.53;2.70;;;;;;;16.54;80.57;99649.13;30598862;28;119728;-72
2023/08/28 03:01:28;;;;;;;3.58;2.80;;;;;;;16.52;80.50;99664.66;30599160;28;97155;-70
2023/08/28 03:16:28;;;;;;;3.97;2.53;;;;;;;16.44;80.63;99651.50;30596858;28;97122;-71
2023/08/28 03:31:29;;;;;;;5.30;3.13;;;;;;;16.37;80.34;99685.69;30594684;28;96735;-73
2023/08/28 03:46:29;;;;;;;5.05;3.30;;;;;;;16.31;80.50;99702.72;30614825;28;96852;-70
2023/08/28 04:01:30;;;;;;;3.60;2.25;;;;;;;16.34;80.41;99719.22;30611968;28;96813;-72
2023/08/28 04:16:30;;;;;;;3.83;2.33;;;;;;;16.20;80.30;99755.31;30609283;28;103267;-72
2023/08/28 04:31:30;;;;;;;6.28;2.70;;;;;;;16.22;80.88;99737.09;30608457;28;97195;-79
2023/08/28 04:46:31;;;;;;;5.95;2.53;;;;;;;16.19;80.46;99721.41;30606603;28;111937;-76
2023/08/28 05:01:32;;;;;;;6.65;3.05;;;;;;;16.33;80.21;99720.25;30606859;28;97189;-69
2023/08/28 05:16:32;;;;;;;7.57;2.57;;;;;;;16.49;79.77;99742.25;30604678;28;97864;-79
2023/08/28 05:31:32;;;;;;;4.47;2.90;;;;;;;16.44;79.66;99767.09;30603178;28;96768;-74
2023/08/28 05:46:33;;;;;;;3.92;2.60;;;;;;;16.55;79.45;99763.72;30601698;28;97188;-67
2023/08/28 06:01:33;;;;;;;7.50;6.03;;;;;;;16.77;79.47;99738.28;30598563;28;112634;-67
2023/08/28 06:16:33;;;;;;;4.03;2.50;;;;;;;17.01;78.44;99763.53;30599640;28;96693;-69
2023/08/28 06:31:34;;;;;;;5.15;2.85;;;;;;;17.15;78.11;99748.84;30597979;28;97407;-72
2023/08/28 06:46:36;;;;;;;4.75;2.58;;;;;;;17.70;77.70;99688.72;30593815;28;97266;-68
2023/08/28 07:01:37;;;;;;;6.17;2.40;;;;;;;18.00;76.44;99670.91;30591096;28;96754;-66
2023/08/28 07:16:37;;;;;;;9.02;2.97;;;;;;;18.03;75.42;99681.19;30591433;28;97172;-66
2023/08/28 07:31:38;;;;;;;4.13;2.92;;;;;;;17.72;74.84;99708.16;30592383;28;97547;-71
2023/08/28 07:46:38;;;;;;;6.03;2.80;;;;;;;17.68;74.99;99776.19;30592010;28;97042;-73
2023/08/28 08:01:38;;;;;;;4.57;2.50;;;;;;;17.83;74.23;99814.34;30591717;28;103486;-66
2023/08/28 08:16:39;;;;;;;3.67;2.40;;;;;;;17.82;73.71;99819.94;30589367;28;96966;-68
2023/08/28 08:31:39;;;;;;;4.90;2.83;;;;;;;18.39;73.39;99792.63;30606188;28;100566;-66
2023/08/28 08:46:41;;;;;;;4.30;2.88;;;;;;;18.57;72.87;99778.22;30608031;28;96761;-74
2023/08/28 09:01:42;;;;;;;7.60;3.27;;;;;;;18.49;72.03;99765.91;30606226;28;97007;-65
2023/08/28 09:16:42;;;;;;;4.75;4.05;;;;;;;18.91;71.82;99741.53;30604417;28;96833;-68
2023/08/28 09:31:42;;;;;;;10.33;5.00;;;;;;;20.31;70.92;99728.00;30604781;28;97409;-72
2023/08/28 09:46:43;;;;;;;4.47;3.43;;;;;;;21.09;67.98;99717.22;30603530;28;96713;-67
2023/08/28 10:01:46;;;;;;;9.67;4.53;;;;;;;21.13;66.99;99710.22;30600917;28;97174;-71
2023/08/28 10:16:54;;;;;;;7.60;4.60;;;;;;;20.75;66.58;99728.97;30599506;28;97209;-67
2023/08/28 10:31:56;;;;;;;9.40;4.90;;;;;;;20.53;66.31;99707.25;30598211;28;96736;-68
2023/08/28 10:46:57;;;;;;;6.10;5.43;;;;;;;21.09;65.88;99687.44;30596884;28;97152;-67
2023/08/28 11:01:58;;;;;;;9.10;4.72;;;;;;;21.84;63.89;99676.88;30594936;28;97270;-71
2023/08/28 11:17:07;;;;;;;7.27;4.07;;;;;;;21.88;62.66;99678.00;30594099;28;98589;-69
2023/08/28 11:32:09;;;;;;;5.23;3.63;;;;;;;21.98;61.92;99683.50;30592866;28;97196;-74
2023/08/28 11:47:09;;;;;;;7.20;3.40;;;;;;;22.01;61.30;99687.59;30590596;28;97664;-67
2023/08/28 12:02:13;;;;;;;8.25;3.38;;;;;;;21.72;61.05;99658.06;30600331;28;114038;-77
2023/08/28 12:17:20;;;;;;;3.70;3.17;;;;;;;21.48;60.00;99660.25;30608705;28;97166;-68
2023/08/28 12:32:21;;;;;;;6.23;3.40;;;;;;;21.13;59.92;99639.81;30606978;28;97170;-70
2023/08/28 12:47:22;;;;;;;3.80;3.05;;;;;;;21.30;59.78;99628.91;30608736;28;97441;-75
2023/08/28 13:02:24;;;;;;;7.77;3.60;;;;;;;21.02;59.97;99648.91;30604743;28;96723;-69
2023/08/28 13:17:24;;;;;;;4.87;3.40;;;;;;;20.66;60.43;99645.72;30603938;28;97491;-68
2023/08/28 13:32:24;;;;;;;4.13;2.67;;;;;;;20.73;60.73;99639.06;30601720;28;96799;-69
2023/08/28 13:47:26;;;;;;;5.47;2.90;;;;;;;20.86;60.44;99626.22;30601470;28;96880;-69
2023/08/28 14:02:27;;;;;;;5.57;2.90;;;;;;;20.61;59.95;99632.94;30598302;28;98380;-78
2023/08/28 14:17:27;;;;;;;6.33;3.70;;;;;;;20.57;60.09;99638.03;30596855;28;97052;-71
2023/08/28 14:32:28;;;;;;;4.00;3.60;;;;;;;20.43;60.40;99634.84;30597016;28;108555;-70
2023/08/28 14:47:28;;;;;;;8.30;3.95;;;;;;;20.20;60.82;99619.66;30596047;28;98826;-76
2023/08/28 15:02:28;;;;;;;6.97;3.50;;;;;;;20.06;61.04;99619.16;30593381;28;109603;-68
2023/08/28 15:17:29;;;;;;;4.90;3.20;;;;;;;19.59;61.39;99636.50;30592325;28;111300;-78
2023/08/28 15:32:29;;;;;;;5.47;2.80;;;;;;;19.37;61.67;99630.13;30620250;28;96733;-79
2023/08/28 15:47:30;;;;;;;4.87;2.70;;;;;;;18.97;62.25;99620.19;30611165;28;96926;-69
2023/08/28 16:02:30;;;;;;;3.60;1.70;;;;;;;18.61;62.77;99639.94;30611597;28;97241;-68
2023/08/28 16:17:30;;;;;;;5.57;1.92;;;;;;;18.20;63.08;99644.44;30609701;28;115194;-74
2023/08/28 16:32:31;;;;;;;2.63;1.70;;;;;;;17.91;63.10;99590.41;30608552;28;101739;-67
2023/08/28 16:47:31;;;;;;;6.88;2.70;;;;;;;17.72;63.07;99615.78;30605851;28;97212;-67
2023/08/28 17:02:31;;;;;;;3.50;1.73;;;;;;;17.56;63.04;99601.09;30605552;28;110773;-67
2023/08/28 17:17:32;;;;;;;3.28;1.88;;;;;;;17.37;62.51;99581.50;30605814;28;96740;-67
2023/08/28 17:32:38;;;;;;;3.80;1.60;;;;;;;17.22;62.56;99579.22;30603791;28;113097;-69
2023/08/28 17:47:39;;;;;;;3.73;1.53;;;;;;;17.08;62.57;99573.19;30602984;28;96734;-66
2023/08/28 18:02:41;;;;;;;3.23;1.90;;;;;;;16.84;63.06;99570.38;30601633;28;97194;-69
2023/08/28 18:17:41;;;;;;;3.83;2.00;;;;;;;16.68;63.04;99573.69;30598900;28;96768;-67
2023/08/28 18:32:41;;;;;;;5.10;3.03;;;;;;;16.64;63.79;99554.50;30595352;28;107642;-74
2023/08/28 18:47:42;;;;;;;4.03;2.65;;;;;;;16.58;63.95;99528.53;30596276;28;98509;-67
2023/08/28 19:02:42;;;;;;;6.15;2.95;;;;;;;16.55;64.99;99526.25;30597550;28;97156;-67
2023/08/28 19:17:42;;;;;;;5.82;3.92;;;;;;;16.50;65.05;99507.31;30596471;28;112198;-67
2023/08/28 19:32:44;;;;;;;8.27;3.95;;;;;;;16.32;65.33;99478.56;30594286;28;97297;-67
2023/08/28 19:47:44;;;;;;;6.20;4.30;;;;;;;16.23;66.83;99484.25;30593790;28;96724;-67
2023/08/28 20:02:45;;;;;;;6.80;5.93;;;;;;;16.16;67.16;99464.69;30591652;28;96726;-73
2023/08/28 20:17:45;;;;;;;7.43;5.45;;;;;;;16.17;67.88;99454.75;30593446;28;96754;-67
2023/08/28 20:32:45;;;;;;;8.27;5.55;;;;;;;16.07;68.38;99492.91;30611245;28;111136;-69
2023/08/28 20:47:51;;;;;;;10.20;7.65;;;;;;;15.86;69.30;99486.94;30610949;28;104221;-76
2023/08/28 21:02:52;;;;;;;11.90;9.40;;;;;;;15.69;70.31;99442.88;30609935;28;97647;-80
2023/08/28 21:17:52;;;;;;;11.90;9.50;;;;;;;15.51;71.30;99424.88;30606875;28;97200;-83
2023/08/28 21:32:52;;;;;;;13.15;11.05;;;;;;;15.47;72.69;99432.53;30605513;28;97457;-67
2023/08/28 21:47:53;;;;;;;12.70;9.85;;;;;;;15.32;72.79;99469.63;30604207;28;116656;-72
2023/08/28 22:02:53;;;;;;;7.65;6.80;;;;;;;15.29;73.00;99513.00;30604198;28;96681;-79
2023/08/28 22:17:54;;;;;;;4.70;2.92;;;;;;;14.96;73.09;99493.41;30603357;28;112766;-82
2023/08/28 22:32:54;;;;;;;4.20;2.70;;;;;;;14.75;72.70;99435.59;30600941;28;107509;-82
2023/08/28 22:47:54;;;;;;;4.57;2.95;;;;;;;14.51;73.31;99352.19;30599514;28;97072;-77
2023/08/28 23:02:55;;;;;;;5.38;4.72;;;;;;;14.27;73.63;99374.41;30598627;28;107608;-83
2023/08/28 23:17:55;;;;;;;6.72;5.35;;;;;;;14.31;73.98;99438.06;30597308;28;97432;-83
2023/08/28 23:32:56;;;;;;;4.88;4.38;;;;;;;14.31;74.48;99397.88;30595878;28;96838;-81
2023/08/28 23:47:57;;;;;;;6.00;4.30;;;;;;;14.28;74.34;99528.75;30595906;28;97122;-82
